Pagina principale
METAR-TAF:

METAR-TAF

Aeroporti :

Ghanzi, Botswana

latitudine: 21-42S, longitudine: 021-39E, altezza: 1131 m

METAR: mancante

Ora: 13:22 (11:22 UTC)

Previsione

Il bollettino è stato emesso 5 ore e 22 minuti fa, alle 06:00 UTC
Previsione valida dal 24 alle 09 UTC al 24 alle 18 UTC
Vento 4 kt da nord-est
Visibilità 10 km o più
nessuna nube inferiore a 1500 m e nessun cumulonembo

TAF: FBGZ 240600Z 2409/2418 05004KT CAVOK

Osservazioni e previsioni meteorologiche di più di 4000 aeroporti (messaggi METAR e TAF).

Le stazioni disponibili sono rappresentate dai dischi gialli e rossi sulla carta.

Puntare il mouse per vedere il nome della stazione.

Clicca sopra per visualizzare le osservazioni e previsioni meteorologiche.

Per cambiare la mappa : fare clic sui pulsanti verdi con una croce nera per ingrandire, il pulsante verde con un trattino per diminuire, o sulla freccia verde per le mappe adiacenti.


METAR-TAF: